Time;durP1;ratioP1;P1;durP2;ratioP2;P2;SDS_P1;SDS_P2;PMS_P1;PMS_P2;Temp;Humidity;BMP_temperature;BMP_pressure;BME280_temperature;BME280_humidity;BME280_pressure;Samples;Min_cycle;Max_cycle;Signal;HPM_P1;HPM_P2
2021/06/01 00:01:29;;;;;;;6.50;4.10;;;;;;;12.41;100.00;99992.94;1751558;80;21654;-67
2021/06/01 00:03:56;;;;;;;6.73;4.23;;;;;;;12.36;100.00;99984.91;1748389;80;21598;-66
2021/06/01 00:06:22;;;;;;;7.50;4.20;;;;;;;12.33;100.00;99975.64;1744211;80;21693;-66
2021/06/01 00:08:49;;;;;;;7.07;4.67;;;;;;;12.29;100.00;99986.20;1745493;80;22047;-66
2021/06/01 00:11:16;;;;;;;7.17;4.70;;;;;;;12.19;100.00;99987.09;1730679;80;22273;-65
2021/06/01 00:13:44;;;;;;;7.47;4.80;;;;;;;12.19;100.00;99987.09;1726783;80;21430;-65
2021/06/01 00:16:11;;;;;;;8.33;4.53;;;;;;;12.05;100.00;99981.57;1723060;81;21705;-64
2021/06/01 00:18:39;;;;;;;6.57;4.70;;;;;;;12.05;100.00;99981.57;1724226;81;21717;-63
2021/06/01 00:21:06;;;;;;;8.87;5.13;;;;;;;12.00;100.00;99982.65;1721113;81;22269;-64
2021/06/01 00:23:37;;;;;;;7.07;4.50;;;;;;;11.85;100.00;99979.70;1721934;81;22248;-64
2021/06/01 00:26:04;;;;;;;6.80;4.93;;;;;;;11.85;100.00;99979.70;1724960;81;22097;-63
2021/06/01 00:28:32;;;;;;;8.47;5.20;;;;;;;11.80;100.00;99973.45;1724736;81;21340;-67
2021/06/01 00:30:59;;;;;;;7.60;5.23;;;;;;;11.74;100.00;99975.53;1721610;81;21323;-64
2021/06/01 00:33:25;;;;;;;7.27;5.73;;;;;;;11.67;100.00;99971.62;1721188;81;21542;-64
2021/06/01 00:35:52;;;;;;;5.77;4.60;;;;;;;11.61;100.00;99975.00;1726811;81;21431;-65
2021/06/01 00:38:19;;;;;;;6.40;5.07;;;;;;;11.56;100.00;99967.77;1725307;81;21602;-64
2021/06/01 00:40:46;;;;;;;8.57;6.10;;;;;;;11.56;100.00;99967.77;1728558;81;21707;-65
2021/06/01 00:43:13;;;;;;;8.00;5.57;;;;;;;11.50;100.00;99967.23;1723732;81;21393;-64
2021/06/01 00:45:40;;;;;;;8.03;5.53;;;;;;;11.45;100.00;99965.72;1723815;81;21479;-65
2021/06/01 00:48:08;;;;;;;8.17;5.80;;;;;;;11.45;100.00;99965.72;1723417;81;21482;-64
2021/06/01 00:50:34;;;;;;;7.63;5.80;;;;;;;11.42;100.00;99973.43;1721741;81;21376;-64
2021/06/01 00:53:01;;;;;;;9.87;6.20;;;;;;;11.41;100.00;99971.83;1722172;81;21331;-64
2021/06/01 00:55:28;;;;;;;7.80;6.27;;;;;;;11.39;100.00;99970.41;1722559;81;21347;-64
2021/06/01 00:57:55;;;;;;;9.40;5.90;;;;;;;11.39;100.00;99970.41;1726015;81;22936;-64
2021/06/01 01:00:46;;;;;;;9.30;5.80;;;;;;;11.38;100.00;99964.38;1724764;81;21446;-63
2021/06/01 01:02:56;;;;;;;10.20;5.80;;;;;;;11.38;100.00;99972.22;1720187;81;21414;-64
2021/06/01 01:05:27;;;;;;;8.63;5.93;;;;;;;11.38;100.00;99966.20;1698544;81;21228;-64
2021/06/01 01:08:20;;;;;;;7.50;4.97;;;;;;;11.38;100.00;99966.20;1715544;82;21921;-64
2021/06/01 01:10:38;;;;;;;7.70;5.10;;;;;;;11.37;100.00;99962.78;1693774;82;21239;-65
2021/06/01 01:13:06;;;;;;;6.93;5.47;;;;;;;11.37;100.00;99967.20;1717393;82;21579;-64
2021/06/01 01:15:35;;;;;;;7.97;5.73;;;;;;;11.36;100.00;99966.38;1717410;82;21316;-64
2021/06/01 01:18:13;;;;;;;8.27;5.37;;;;;;;11.35;100.00;99995.28;1688035;83;21508;-64
2021/06/01 01:20:56;;;;;;;7.27;5.13;;;;;;;11.35;100.00;99973.91;1717930;82;21222;-65
2021/06/01 01:23:23;;;;;;;;;;;;;;;11.34;100.00;99972.30;1720716;81;22654;-64
2021/06/01 01:26:34;;;;;;;6.50;5.03;;;;;;;11.34;100.00;99965.77;1697071;83;20155;-63
2021/06/01 01:29:22;;;;;;;6.90;5.27;;;;;;;11.34;100.00;99959.76;1698947;82;21341;-63
2021/06/01 01:31:58;;;;;;;11.53;5.73;;;;;;;11.34;100.00;99965.77;1701007;82;21438;-64
2021/06/01 01:34:26;;;;;;;9.77;6.03;;;;;;;11.35;100.00;99969.98;1701515;82;21336;-63
2021/06/01 01:36:53;;;;;;;8.17;5.17;;;;;;;11.35;100.00;99966.58;1687081;84;21040;-63
2021/06/01 01:39:20;;;;;;;9.40;5.43;;;;;;;11.35;100.00;99966.58;1680054;84;21505;-63
2021/06/01 01:41:47;;;;;;;8.20;6.07;;;;;;;11.34;100.00;99961.06;1701220;82;21499;-63
2021/06/01 01:44:16;;;;;;;10.17;5.90;;;;;;;11.34;100.00;99961.06;1701234;82;21395;-64
2021/06/01 01:49:22;;;;;;;9.23;6.13;;;;;;;11.31;100.00;99970.08;1701800;83;21374;-64
2021/06/01 01:51:56;;;;;;;10.47;6.00;;;;;;;11.29;100.00;99965.56;1700137;83;23050;-65
2021/06/01 01:54:23;;;;;;;8.23;5.63;;;;;;;11.30;100.00;99968.98;1701442;82;21548;-64
2021/06/01 01:56:54;;;;;;;9.23;5.57;;;;;;;11.26;100.00;99963.34;1701342;83;21225;-64
2021/06/01 01:59:26;;;;;;;11.83;6.33;;;;;;;11.26;100.00;99963.34;1701682;82;21657;-65
2021/06/01 02:01:54;;;;;;;9.23;6.67;;;;;;;11.28;100.00;99967.05;1699592;83;21055;-65
2021/06/01 02:04:25;;;;;;;10.37;6.43;;;;;;;11.27;100.00;99967.55;1708699;81;21418;-64
2021/06/01 02:06:53;;;;;;;10.27;6.43;;;;;;;11.29;100.00;99973.87;1726939;81;21481;-64
2021/06/01 02:09:20;;;;;;;8.83;6.87;;;;;;;11.30;100.00;99959.34;1742449;80;21690;-65
2021/06/01 02:11:47;;;;;;;9.50;6.20;;;;;;;11.31;100.00;99957.03;1740053;80;21537;-65
2021/06/01 02:14:15;;;;;;;9.03;6.47;;;;;;;11.36;100.00;99952.52;1735971;80;21267;-64
2021/06/01 02:16:43;;;;;;;10.53;6.83;;;;;;;11.36;100.00;99952.52;1751977;80;21544;-64
2021/06/01 02:19:14;;;;;;;9.70;7.07;;;;;;;11.39;100.00;99956.05;1752536;80;21400;-65
2021/06/01 02:25:06;;;;;;;9.30;6.17;;;;;;;11.45;100.00;99960.50;1647470;85;21482;-65
2021/06/01 02:27:45;;;;;;;11.20;7.70;;;;;;;11.46;100.00;99958.19;1739959;80;21498;-65
2021/06/01 02:30:15;;;;;;;9.63;7.03;;;;;;;11.48;100.00;99960.59;1742177;80;21420;-66
2021/06/01 02:32:48;;;;;;;9.70;6.20;;;;;;;11.48;100.00;99960.59;1712415;80;21804;-65
2021/06/01 02:35:28;;;;;;;10.13;7.70;;;;;;;11.45;100.00;99951.37;1742641;80;21553;-65
2021/06/01 02:38:00;;;;;;;8.30;6.50;;;;;;;11.48;100.00;99951.45;1738935;80;22199;-64
2021/06/01 02:40:26;;;;;;;9.03;6.47;;;;;;;11.50;100.00;99951.57;1742690;80;21281;-64
2021/06/01 02:42:53;;;;;;;12.77;7.67;;;;;;;11.49;100.00;99952.58;1742103;80;21398;-63
2021/06/01 02:45:20;;;;;;;10.87;7.30;;;;;;;11.49;100.00;99946.06;1694706;82;21957;-63
2021/06/01 02:47:47;;;;;;;10.57;6.93;;;;;;;11.51;100.00;99947.16;1740982;80;21427;-65
2021/06/01 02:50:15;;;;;;;12.93;7.93;;;;;;;11.52;100.00;99945.67;1741896;80;21472;-65
2021/06/01 02:52:43;;;;;;;8.90;7.33;;;;;;;11.53;100.00;99943.86;1741393;80;21771;-65
2021/06/01 02:55:14;;;;;;;10.33;7.77;;;;;;;11.58;100.00;99945.37;1722547;81;21300;-65
2021/06/01 02:57:40;;;;;;;12.82;7.72;;;;;;;11.59;100.00;99943.05;1729863;80;21550;-65
2021/06/01 03:00:19;;;;;;;11.93;7.80;;;;;;;11.63;100.00;99940.34;1726553;79;20997;31
2021/06/01 03:02:45;;;;;;;11.30;7.70;;;;;;;11.65;100.00;99938.36;1735193;80;21813;-64
2021/06/01 03:05:12;;;;;;;12.97;8.77;;;;;;;11.67;100.00;99937.17;1744394;80;22037;-66
2021/06/01 03:07:41;;;;;;;11.37;8.60;;;;;;;11.73;100.00;99930.34;1740953;80;21418;-63
2021/06/01 03:10:12;;;;;;;13.00;8.30;;;;;;;11.73;100.00;99930.34;1741965;80;21659;-65
2021/06/01 03:15:10;;;;;;;14.53;8.80;;;;;;;11.79;100.00;99929.55;1746558;80;22110;-65
2021/06/01 03:17:36;;;;;;;11.43;8.30;;;;;;;11.82;100.00;99953.14;1740397;80;21835;-64
2021/06/01 03:20:05;;;;;;;10.63;8.30;;;;;;;11.82;100.00;99933.08;1743259;80;21461;-65
2021/06/01 03:22:32;;;;;;;12.97;8.83;;;;;;;11.81;100.00;99943.20;1739090;80;21510;-65
2021/06/01 03:24:59;;;;;;;11.40;7.93;;;;;;;11.79;100.00;99941.31;1743037;80;22340;-64
2021/06/01 03:27:26;;;;;;;12.00;8.83;;;;;;;11.74;100.00;99933.25;1743508;80;22192;-65
2021/06/01 03:29:52;;;;;;;10.57;7.90;;;;;;;11.73;100.00;99944.70;1742076;80;21651;-64
2021/06/01 03:32:18;;;;;;;13.57;8.90;;;;;;;11.67;100.00;99941.59;1742393;80;21627;-64
2021/06/01 03:34:45;;;;;;;11.53;8.30;;;;;;;11.59;100.00;99928.70;1740624;80;21313;-64
2021/06/01 03:37:12;;;;;;;12.17;8.10;;;;;;;11.59;100.00;99928.70;1724501;80;23308;-66
2021/06/01 03:39:38;;;;;;;15.93;9.07;;;;;;;11.59;100.00;99913.03;1723852;80;21695;-65
2021/06/01 03:42:11;;;;;;;11.60;9.33;;;;;;;11.58;100.00;99912.23;1725341;80;22290;-65
2021/06/01 03:44:34;;;;;;;11.50;8.80;;;;;;;11.54;100.00;99912.83;1726408;80;21980;-65
2021/06/01 03:47:01;;;;;;;12.13;8.77;;;;;;;11.52;100.00;99911.73;1741543;80;23193;-66
2021/06/01 03:49:27;;;;;;;13.67;9.33;;;;;;;11.52;100.00;99911.73;1740959;80;21429;-66
2021/06/01 03:51:53;;;;;;;10.07;8.57;;;;;;;11.49;100.00;99901.69;1743893;80;21491;-66
2021/06/01 03:54:20;;;;;;;10.93;8.20;;;;;;;11.49;100.00;99903.49;1740855;80;21997;-65
2021/06/01 03:56:48;;;;;;;11.63;9.07;;;;;;;11.44;100.00;99906.70;1746305;80;22153;-67
2021/06/01 03:59:14;;;;;;;12.40;9.87;;;;;;;11.44;100.00;99906.70;1721030;81;21538;-66
2021/06/01 04:01:40;;;;;;;13.40;9.30;;;;;;;11.44;100.00;99910.62;1731107;81;22088;-67
2021/06/01 04:04:07;;;;;;;10.73;7.90;;;;;;;11.42;100.00;99906.08;1740973;80;22007;-68
2021/06/01 04:06:35;;;;;;;12.50;8.87;;;;;;;11.42;100.00;99906.08;1739952;80;22005;-65
2021/06/01 04:09:01;;;;;;;16.30;9.50;;;;;;;11.45;100.00;99916.94;1733750;81;22996;-70
2021/06/01 04:11:28;;;;;;;11.93;8.60;;;;;;;11.45;100.00;99911.71;1732208;81;22063;-66
2021/06/01 04:13:55;;;;;;;11.97;9.33;;;;;;;11.51;100.00;99911.91;1737150;81;21476;-66
2021/06/01 04:16:22;;;;;;;12.37;9.27;;;;;;;11.51;100.00;99911.91;1730390;80;21398;-65
2021/06/01 04:18:50;;;;;;;12.47;8.73;;;;;;;11.52;100.00;99900.50;1729623;81;21549;-65
2021/06/01 04:21:17;;;;;;;12.50;8.60;;;;;;;11.52;100.00;99900.50;1739428;80;21546;-68
2021/06/01 04:23:43;;;;;;;11.07;9.20;;;;;;;11.58;100.00;99908.82;1744331;80;21593;-68
2021/06/01 04:26:10;;;;;;;13.63;8.93;;;;;;;11.62;100.00;99886.53;1738672;80;21929;-67
2021/06/01 04:28:36;;;;;;;13.50;9.03;;;;;;;11.62;100.00;99886.53;1739456;80;22201;-64
2021/06/01 04:31:03;;;;;;;14.43;8.77;;;;;;;11.66;100.00;99876.80;1739345;80;21723;-67
2021/06/01 04:33:30;;;;;;;11.30;9.00;;;;;;;11.72;100.00;99867.89;1744755;80;22085;-67
2021/06/01 04:35:56;;;;;;;12.17;8.80;;;;;;;11.72;100.00;99867.89;1742238;80;21454;-66
2021/06/01 04:38:23;;;;;;;12.73;8.57;;;;;;;11.73;100.00;99863.76;1743560;80;21628;-66
2021/06/01 04:40:50;;;;;;;10.93;7.90;;;;;;;11.74;100.00;99866.66;1742035;80;21639;-65
2021/06/01 04:43:16;;;;;;;10.33;8.67;;;;;;;11.74;100.00;99866.66;1743360;80;21493;-66
2021/06/01 04:45:43;;;;;;;11.77;8.07;;;;;;;11.74;100.00;99879.72;1742945;80;21627;-67
2021/06/01 04:48:10;;;;;;;10.87;8.20;;;;;;;11.74;100.00;99886.25;1741477;80;21624;-67
2021/06/01 04:50:37;;;;;;;11.77;8.40;;;;;;;11.76;100.00;99885.55;1736473;80;21607;-66
2021/06/01 04:53:04;;;;;;;12.37;9.00;;;;;;;11.76;100.00;99879.53;1740103;80;21632;-63
2021/06/01 04:55:30;;;;;;;10.80;7.80;;;;;;;11.76;100.00;99879.53;1743568;80;21706;-69
2021/06/01 04:57:57;;;;;;;11.80;8.93;;;;;;;11.69;100.00;99882.93;1737841;80;22195;-65
2021/06/01 05:00:23;;;;;;;13.23;9.10;;;;;;;11.69;100.00;99882.93;1744274;80;21644;-67
2021/06/01 05:02:50;;;;;;;14.13;9.37;;;;;;;11.64;100.00;99891.88;1753315;80;22044;-70
2021/06/01 05:05:17;;;;;;;10.80;8.03;;;;;;;11.52;100.00;99905.72;1758950;80;21432;-66
2021/06/01 05:07:44;;;;;;;10.93;7.93;;;;;;;11.46;100.00;99912.52;1758186;80;21444;-67
2021/06/01 05:10:11;;;;;;;12.50;7.93;;;;;;;11.40;100.00;99909.37;1759630;80;21631;-68
2021/06/01 05:12:39;;;;;;;10.90;9.00;;;;;;;11.40;100.00;99909.37;1759138;80;21418;-67
2021/06/01 05:15:07;;;;;;;10.43;8.37;;;;;;;11.32;100.00;99918.19;1758060;80;21466;-68
2021/06/01 05:17:35;;;;;;;13.23;8.53;;;;;;;11.34;100.00;99930.55;1756855;80;21575;-66
2021/06/01 05:20:03;;;;;;;10.20;7.93;;;;;;;11.34;100.00;99930.55;1755430;80;21478;-68
2021/06/01 05:22:29;;;;;;;9.43;7.10;;;;;;;11.32;100.00;99923.40;1758035;79;21467;-67
2021/06/01 05:24:56;;;;;;;13.23;10.27;;;;;;;11.35;100.00;99919.61;1758967;80;21370;-67
2021/06/01 05:27:22;;;;;;;23.80;16.57;;;;;;;11.36;100.00;99924.62;1756682;80;21230;-65
2021/06/01 05:29:53;;;;;;;42.80;29.17;;;;;;;11.38;100.00;99923.94;1757334;79;21555;-67
2021/06/01 05:35:01;;;;;;;16.93;12.53;;;;;;;11.44;100.00;99926.27;1740777;80;21509;-69
2021/06/01 05:37:29;;;;;;;13.33;10.53;;;;;;;11.45;100.00;99920.05;1737863;80;22649;-68
2021/06/01 05:39:56;;;;;;;14.93;9.33;;;;;;;11.49;100.00;99927.78;1759351;80;21475;-68
2021/06/01 05:42:25;;;;;;;13.47;9.73;;;;;;;11.49;100.00;99927.78;1758506;80;22025;-68
2021/06/01 05:44:52;;;;;;;14.03;10.67;;;;;;;11.52;100.00;99931.81;1757652;79;22136;-68
2021/06/01 05:47:18;;;;;;;12.07;8.83;;;;;;;11.53;100.00;99932.11;1758121;80;21741;-67
2021/06/01 05:49:45;;;;;;;10.63;8.57;;;;;;;11.55;100.00;99935.31;1756619;79;21587;-68
2021/06/01 05:52:11;;;;;;;10.70;7.80;;;;;;;11.56;100.00;99923.89;1759373;80;21592;-69
2021/06/01 05:54:38;;;;;;;11.23;7.57;;;;;;;11.58;100.00;99933.63;1737138;81;21707;-70
2021/06/01 05:57:06;;;;;;;11.03;6.83;;;;;;;11.59;100.00;99935.22;1759113;80;21556;-68
2021/06/01 05:59:33;;;;;;;13.67;7.93;;;;;;;11.63;100.00;99937.73;1756604;79;21485;-68
2021/06/01 06:02:00;;;;;;;17.23;9.67;;;;;;;11.66;100.00;99936.05;1759354;80;21329;-69
2021/06/01 06:04:27;;;;;;;14.13;9.00;;;;;;;11.70;100.00;99929.42;1756919;80;21695;-70
2021/06/01 06:06:54;;;;;;;9.70;7.50;;;;;;;11.76;100.00;99928.64;1757238;80;21603;-70
2021/06/01 06:09:20;;;;;;;10.17;7.30;;;;;;;11.80;100.00;99933.77;1756663;79;21561;-66
2021/06/01 06:11:46;;;;;;;10.27;8.57;;;;;;;11.85;100.00;99930.08;1726429;82;21773;-69
2021/06/01 06:14:13;;;;;;;9.53;7.63;;;;;;;11.91;100.00;99929.80;1693790;83;21766;-71
2021/06/01 06:16:51;;;;;;;8.97;7.83;;;;;;;11.97;100.00;99929.02;1701406;82;22366;-72
2021/06/01 06:19:20;;;;;;;15.23;7.43;;;;;;;12.01;100.00;99928.09;1629915;84;21632;-69
2021/06/01 06:21:47;;;;;;;9.90;7.53;;;;;;;12.07;100.00;99920.77;1701140;82;21773;-66
2021/06/01 06:24:14;;;;;;;11.53;8.57;;;;;;;12.07;100.00;99920.77;1708502;82;22253;-71
2021/06/01 06:26:42;;;;;;;10.47;7.50;;;;;;;12.10;100.00;99924.28;1710383;82;23131;-70
2021/06/01 06:29:08;;;;;;;8.40;6.63;;;;;;;12.09;100.00;99918.77;1708490;82;21698;-66
2021/06/01 06:31:35;;;;;;;10.67;8.83;;;;;;;12.07;100.00;99915.03;1711095;82;22795;-71
2021/06/01 06:34:02;;;;;;;9.73;6.90;;;;;;;12.10;100.00;99921.67;1709585;82;22309;-66
2021/06/01 06:36:29;;;;;;;8.47;6.20;;;;;;;12.11;100.00;99917.55;1707523;82;21695;-68
2021/06/01 06:38:55;;;;;;;9.90;6.80;;;;;;;12.14;100.00;99921.06;1711252;82;21734;-67
2021/06/01 06:41:22;;;;;;;9.03;7.43;;;;;;;12.19;100.00;99921.77;1704758;82;22062;-68
2021/06/01 06:43:50;;;;;;;11.47;7.40;;;;;;;12.26;100.00;99917.34;1695812;82;21788;-67
2021/06/01 06:46:25;;;;;;;8.50;6.63;;;;;;;12.26;100.00;99917.34;1708566;82;20997;-68
2021/06/01 06:48:47;;;;;;;8.70;6.33;;;;;;;12.30;100.00;99922.46;1711803;82;21761;-67
2021/06/01 06:51:13;;;;;;;12.00;6.83;;;;;;;12.31;100.00;99924.09;1704608;82;22349;-66
2021/06/01 06:53:52;;;;;;;10.03;6.50;;;;;;;12.31;100.00;99920.17;1711743;82;23131;-68
2021/06/01 06:56:21;;;;;;;7.33;6.13;;;;;;;12.32;100.00;99920.97;1710052;82;21781;-69
2021/06/01 06:58:47;;;;;;;8.60;5.87;;;;;;;12.30;100.00;99928.19;1712248;82;22310;-71
2021/06/01 07:01:14;;;;;;;7.97;6.03;;;;;;;12.25;100.00;99922.27;1705246;82;21686;-70
2021/06/01 07:03:40;;;;;;;8.97;5.70;;;;;;;12.20;100.00;99926.00;1739123;80;22378;-67
2021/06/01 07:06:07;;;;;;;8.17;5.83;;;;;;;12.16;100.00;99919.58;1742586;80;21914;-72
2021/06/01 07:08:36;;;;;;;8.03;6.20;;;;;;;12.13;100.00;99918.16;1737106;80;22440;-69
2021/06/01 07:11:03;;;;;;;9.13;6.23;;;;;;;12.14;100.00;99920.27;1732958;80;21670;-67
2021/06/01 07:13:51;;;;;;;10.50;7.03;;;;;;;12.16;100.00;99918.27;1741380;80;21752;-68
2021/06/01 07:16:18;;;;;;;9.40;6.70;;;;;;;12.16;100.00;99916.96;1735496;80;21024;-69
2021/06/01 07:18:46;;;;;;;8.23;6.50;;;;;;;12.18;100.00;99922.27;1749255;80;21707;-68
2021/06/01 07:21:13;;;;;;;9.63;6.83;;;;;;;12.20;100.00;99907.71;1730454;81;21848;-68
2021/06/01 07:23:40;;;;;;;10.90;6.20;;;;;;;12.20;100.00;99918.16;1743916;80;21695;-69
2021/06/01 07:26:07;;;;;;;7.70;5.50;;;;;;;12.21;100.00;99921.07;1734051;81;22204;-69
2021/06/01 07:28:34;;;;;;;6.60;5.20;;;;;;;12.19;100.00;99919.14;1743562;80;21822;-66
2021/06/01 07:31:05;;;;;;;9.50;6.33;;;;;;;12.12;100.00;99910.50;1741085;80;21669;-70
2021/06/01 07:33:31;;;;;;;7.33;5.07;;;;;;;12.08;100.00;99918.45;1739559;80;23133;-66
2021/06/01 07:35:58;;;;;;;9.23;6.20;;;;;;;12.00;100.00;99905.59;1721484;81;21713;-68
2021/06/01 07:38:25;;;;;;;10.00;6.00;;;;;;;11.96;100.00;99909.61;1717357;81;21731;-67
2021/06/01 07:40:51;;;;;;;7.77;4.03;;;;;;;11.92;100.00;99906.08;1738192;80;21626;-67
2021/06/01 07:43:18;;;;;;;4.90;3.17;;;;;;;11.88;100.00;99900.95;1721744;81;21731;-65
2021/06/01 07:45:45;;;;;;;5.03;3.47;;;;;;;11.83;100.00;99899.45;1731521;80;22274;-69
2021/06/01 07:48:13;;;;;;;7.17;3.70;;;;;;;11.79;100.00;99893.50;1736649;80;21777;-65
2021/06/01 07:50:39;;;;;;;5.87;3.60;;;;;;;11.77;100.00;99876.71;1743194;80;21655;-66
2021/06/01 07:53:06;;;;;;;4.30;3.07;;;;;;;11.80;100.00;99876.83;1729653;81;22250;-70
2021/06/01 07:55:33;;;;;;;8.10;3.90;;;;;;;11.85;100.00;99867.41;1741153;80;22200;-65
2021/06/01 07:57:59;;;;;;;7.53;3.53;;;;;;;11.85;100.00;99867.41;1735408;80;21795;-65
2021/06/01 08:00:27;;;;;;;6.03;3.57;;;;;;;11.90;100.00;99855.07;1738055;80;21722;-64
2021/06/01 08:02:54;;;;;;;7.30;3.60;;;;;;;11.97;100.00;99852.44;1744294;80;21738;-66
2021/06/01 08:05:20;;;;;;;5.13;3.43;;;;;;;12.01;100.00;99847.94;1753176;80;21691;-68
2021/06/01 08:07:49;;;;;;;5.10;3.27;;;;;;;12.08;100.00;99845.30;1716761;81;21801;-69
2021/06/01 08:10:16;;;;;;;6.73;4.17;;;;;;;12.18;100.00;99840.47;1706850;81;21804;-65
2021/06/01 08:12:45;;;;;;;6.30;4.03;;;;;;;12.23;100.00;99833.31;1715078;81;22352;-61
2021/06/01 08:15:33;;;;;;;6.67;3.37;;;;;;;12.26;100.00;99832.91;1711177;82;21785;-72
2021/06/01 08:18:03;;;;;;;6.00;3.50;;;;;;;12.34;100.00;99850.98;1719502;81;22348;-62
2021/06/01 08:20:35;;;;;;;9.03;4.50;;;;;;;12.54;100.00;99836.08;1725818;81;21688;-65
2021/06/01 08:22:58;;;;;;;7.27;4.80;;;;;;;12.65;100.00;99831.99;1716810;81;21079;-68
2021/06/01 08:25:25;;;;;;;5.17;2.93;;;;;;;12.65;100.00;99831.99;1721797;81;21039;-65
2021/06/01 08:27:54;;;;;;;8.47;4.20;;;;;;;12.74;100.00;99822.12;1713125;81;21655;-65
2021/06/01 08:30:21;;;;;;;6.53;3.60;;;;;;;12.85;100.00;99824.89;1714609;81;21871;-64
2021/06/01 08:32:48;;;;;;;5.87;3.57;;;;;;;13.05;100.00;99822.67;1687686;83;21160;-65
2021/06/01 08:35:16;;;;;;;6.53;3.60;;;;;;;13.31;100.00;99826.48;1696208;81;21187;-67
2021/06/01 08:37:43;;;;;;;6.20;3.57;;;;;;;13.45;100.00;99819.83;1717439;82;21072;-66
2021/06/01 08:40:11;;;;;;;5.60;3.90;;;;;;;13.53;100.00;99820.91;1689582;82;20979;-66
2021/06/01 08:42:39;;;;;;;5.00;3.87;;;;;;;13.62;100.00;99819.61;1713978;82;20984;-65
2021/06/01 08:45:08;;;;;;;6.10;4.63;;;;;;;13.77;100.00;99803.07;1719648;82;21038;-65
2021/06/01 08:47:36;;;;;;;7.63;3.60;;;;;;;13.82;100.00;99816.83;1724055;82;21253;-65
2021/06/01 08:50:07;;;;;;;4.90;3.40;;;;;;;13.95;100.00;99829.03;1715377;82;20968;-66
2021/06/01 08:52:35;;;;;;;6.20;4.00;;;;;;;14.14;100.00;99833.28;1717736;82;21131;-67
2021/06/01 08:55:04;;;;;;;7.63;3.83;;;;;;;14.21;100.00;99837.95;1714484;82;20984;-66
2021/06/01 08:57:34;;;;;;;4.03;2.60;;;;;;;14.16;100.00;99836.47;1683121;82;21500;-67
2021/06/01 09:00:00;;;;;;;5.43;3.30;;;;;;;14.01;100.00;99837.32;1712841;82;21113;-67
2021/06/01 09:02:27;;;;;;;5.10;3.53;;;;;;;13.90;100.00;99836.72;1720552;82;21174;-67
2021/06/01 09:04:57;;;;;;;5.37;3.63;;;;;;;13.77;100.00;99827.16;1719302;82;21058;-66
2021/06/01 09:08:26;;;;;;;4.63;2.87;;;;;;;13.67;100.00;99813.73;1717017;82;21166;-67
2021/06/01 09:10:35;;;;;;;4.67;3.37;;;;;;;13.70;100.00;99811.48;1709301;82;21102;-68
2021/06/01 09:13:31;;;;;;;5.40;3.90;;;;;;;13.84;100.00;99810.37;1712090;82;22756;-66
2021/06/01 09:19:47;;;;;;;5.47;3.53;;;;;;;14.04;100.00;99812.80;1715649;80;21035;-68
2021/06/01 09:21:16;;;;;;;5.43;3.60;;;;;;;14.08;100.00;99822.34;1760475;80;21087;-68
2021/06/01 09:23:57;;;;;;;8.10;4.20;;;;;;;14.05;100.00;99821.45;1761595;80;21011;-70
2021/06/01 09:27:07;;;;;;;5.73;3.60;;;;;;;14.01;100.00;99821.59;1751306;80;21065;-69
2021/06/01 09:29:32;;;;;;;5.90;3.40;;;;;;;13.96;100.00;99818.32;1752457;80;20936;-69
2021/06/01 09:32:16;;;;;;;7.10;4.33;;;;;;;13.87;100.00;99832.21;1753680;80;20952;-64
2021/06/01 09:34:50;;;;;;;5.83;3.27;;;;;;;13.79;100.00;99825.94;1751711;80;21063;-69
2021/06/01 09:37:25;;;;;;;5.97;3.77;;;;;;;13.73;100.00;99828.60;1732437;81;20973;-69
2021/06/01 09:40:18;;;;;;;6.77;4.07;;;;;;;13.67;100.00;99821.59;1752191;80;20998;-69
2021/06/01 09:42:50;;;;;;;5.47;3.87;;;;;;;13.61;100.00;99816.20;1760062;80;20969;-68
2021/06/01 09:45:23;;;;;;;6.17;3.33;;;;;;;13.58;100.00;99814.52;1729608;81;21590;-66
2021/06/01 09:47:59;;;;;;;5.93;3.87;;;;;;;13.47;100.00;99802.91;1752850;80;21541;-65
2021/06/01 09:53:07;;;;;;;6.13;3.50;;;;;;;13.09;100.00;99794.56;1752619;80;21086;-65
2021/06/01 09:55:42;;;;;;;8.43;4.03;;;;;;;12.91;100.00;99780.87;1751495;80;21085;-63
2021/06/01 09:58:13;;;;;;;6.07;4.07;;;;;;;12.81;100.00;99791.52;1748677;80;20985;-62
2021/06/01 10:00:41;;;;;;;6.37;4.23;;;;;;;12.76;100.00;99786.09;1745688;80;21073;-62
2021/06/01 10:03:23;;;;;;;5.73;3.60;;;;;;;12.69;100.00;99786.14;1749379;80;20905;-63
2021/06/01 10:05:43;;;;;;;6.17;3.80;;;;;;;12.63;100.00;99784.34;1743929;80;21545;-67
2021/06/01 10:08:18;;;;;;;8.37;4.13;;;;;;;12.59;100.00;99805.38;1749114;80;21012;-66
2021/06/01 10:10:55;;;;;;;6.20;4.23;;;;;;;12.55;100.00;99799.77;1746645;80;21644;-67
2021/06/01 10:13:25;;;;;;;5.93;3.97;;;;;;;12.52;100.00;99794.14;1742227;80;21848;-66
2021/06/01 10:15:57;;;;;;;8.40;3.60;;;;;;;12.48;100.00;99788.52;1751114;80;20968;-65
2021/06/01 10:18:28;;;;;;;5.97;3.57;;;;;;;12.44;100.00;99798.30;1748646;80;21988;-67
2021/06/01 10:20:53;;;;;;;7.40;4.53;;;;;;;12.38;100.00;99790.76;1748908;80;20957;-65
2021/06/01 10:23:25;;;;;;;6.83;4.27;;;;;;;12.31;100.00;99806.48;1743937;80;21465;-65
2021/06/01 10:25:49;;;;;;;6.70;4.23;;;;;;;12.31;100.00;99806.48;1748600;80;21012;-65
2021/06/01 10:28:25;;;;;;;5.80;3.97;;;;;;;12.27;100.00;99807.88;1755067;79;21667;-65
2021/06/01 10:30:47;;;;;;;5.43;3.87;;;;;;;12.25;100.00;99811.21;1732718;81;21324;-64
2021/06/01 10:33:15;;;;;;;5.37;4.10;;;;;;;12.21;100.00;99817.85;1762478;80;21736;-64
2021/06/01 10:35:48;;;;;;;7.07;4.33;;;;;;;12.21;100.00;99816.55;1753809;80;21749;-68
2021/06/01 10:52:26;;;;;;;6.63;4.80;;;;;;;12.29;100.00;99787.58;1740180;81;21044;-71
2021/06/01 10:55:03;;;;;;;6.73;4.27;;;;;;;12.29;100.00;99787.58;1739291;80;21127;-60
2021/06/01 10:57:56;;;;;;;7.13;4.60;;;;;;;12.31;100.00;99795.20;1745941;80;21713;-65
2021/06/01 11:03:15;;;;;;;8.90;5.53;;;;;;;12.31;100.00;99797.34;1754523;80;21027;-62
2021/06/01 11:06:00;;;;;;;6.97;4.95;;;;;;;12.29;100.00;99795.92;1752113;80;21019;-71
2021/06/01 11:08:45;;;;;;;7.03;5.00;;;;;;;12.28;100.00;99795.13;1746106;80;20985;-63
2021/06/01 11:11:27;;;;;;;8.67;5.07;;;;;;;12.24;100.00;99793.13;1750607;80;22319;-63
2021/06/01 11:14:01;;;;;;;7.40;5.03;;;;;;;12.19;100.00;99792.42;1750098;80;20984;-72
2021/06/01 11:16:54;;;;;;;8.30;5.00;;;;;;;12.19;100.00;99792.42;1752648;80;22426;-63
2021/06/01 11:19:23;;;;;;;6.50;4.60;;;;;;;12.23;100.00;99798.84;1748697;80;21060;-63
2021/06/01 11:22:04;;;;;;;7.40;5.33;;;;;;;12.28;100.00;99789.90;1749571;80;21738;-62
2021/06/01 11:33:09;;;;;;;6.00;4.67;;;;;;;12.59;100.00;99796.23;1725987;81;22351;-64
2021/06/01 11:35:42;;;;;;;8.45;6.17;;;;;;;12.51;100.00;99792.03;1734688;80;22295;-63
2021/06/01 11:38:22;;;;;;;8.43;5.03;;;;;;;12.43;100.00;99796.19;1727206;81;21090;-69
2021/06/01 11:41:19;;;;;;;7.47;5.50;;;;;;;12.36;100.00;99796.20;1737342;81;20957;-65
2021/06/01 11:43:33;;;;;;;8.10;5.00;;;;;;;12.22;100.00;99785.98;1748138;80;22071;-68
2021/06/01 11:46:10;;;;;;;6.87;4.80;;;;;;;12.22;100.00;99785.98;1751719;80;22271;-63
2021/06/01 11:51:25;;;;;;;8.00;5.50;;;;;;;12.07;100.00;99800.08;1744146;80;21087;-65
2021/06/01 11:54:02;;;;;;;6.97;5.30;;;;;;;11.99;100.00;99781.22;1729630;82;21008;-63
2021/06/01 11:57:09;;;;;;;8.83;5.53;;;;;;;11.99;100.00;99794.28;1742337;80;21393;-63
2021/06/01 13:47:18;;;;;;;6.60;4.43;;;;;;;12.74;100.00;99727.97;1805281;79;21078;-67
2021/06/01 13:49:59;;;;;;;6.67;4.03;;;;;;;12.80;100.00;99742.30;1801169;78;22144;-65
2021/06/01 14:29:56;;;;;;;5.30;2.40;;;;;;;12.13;100.00;99760.09;1823315;77;21534;-65
2021/06/01 15:03:51;;;;;;;3.47;2.13;;;;;;;11.89;100.00;99751.58;1805285;77;21775;-63
2021/06/01 15:07:22;;;;;;;6.37;3.20;;;;;;;11.76;100.00;99766.75;1806035;79;21600;-63
2021/06/01 16:32:15;;;;;;;4.07;2.00;;;;;;;11.59;100.00;99794.26;1793739;78;21708;-68
2021/06/01 16:43:34;;;;;;;4.23;1.87;;;;;;;11.67;100.00;99779.22;1797859;78;21596;-67
2021/06/01 17:04:44;;;;;;;5.07;1.70;;;;;;;11.42;100.00;99810.31;1805120;79;22183;-65
2021/06/01 17:07:23;;;;;;;3.30;1.97;;;;;;;11.44;100.00;99812.75;1804128;78;21607;-66